createdAt,value
2022-10-24T00:00:47.807Z,99.90
2022-10-24T00:03:17.290Z,99.90
2022-10-24T00:05:47.688Z,99.90
2022-10-24T00:08:15.871Z,99.90
2022-10-24T00:10:44.743Z,99.90
2022-10-24T00:13:13.494Z,99.90
2022-10-24T00:15:47.250Z,99.90
2022-10-24T00:18:15.354Z,99.90
2022-10-24T00:23:16.604Z,99.90
2022-10-24T00:25:44.454Z,99.90
2022-10-24T00:28:12.221Z,99.90
2022-10-24T00:30:40.012Z,99.90
2022-10-24T00:33:09.114Z,99.90
2022-10-24T00:35:36.969Z,99.90
2022-10-24T00:38:04.722Z,99.90
2022-10-24T00:40:32.503Z,99.90
2022-10-24T00:43:00.323Z,99.90
2022-10-24T00:45:54.904Z,99.90
2022-10-24T00:48:28.318Z,99.90
2022-10-24T00:50:59.905Z,99.90
2022-10-24T00:53:29.402Z,99.90
2022-10-24T00:56:00.859Z,99.90
2022-10-24T00:58:31.714Z,99.90
2022-10-24T01:00:59.951Z,99.90
2022-10-24T01:03:29.194Z,99.90
2022-10-24T01:06:28.220Z,99.90
2022-10-24T01:09:07.196Z,99.90
2022-10-24T01:11:46.387Z,99.90
2022-10-24T01:14:24.226Z,99.90
2022-10-24T01:16:57.590Z,99.90
2022-10-24T01:19:51.458Z,99.90
2022-10-24T01:22:23.727Z,99.90
2022-10-24T01:25:04.558Z,99.90
2022-10-24T01:27:42.839Z,99.90
2022-10-24T01:30:13.783Z,99.90
2022-10-24T01:32:49.117Z,99.90
2022-10-24T01:35:27.657Z,99.90
2022-10-24T01:38:03.360Z,99.90
2022-10-24T01:40:34.475Z,99.90
2022-10-24T01:43:07.420Z,99.90
2022-10-24T01:45:40.038Z,99.90
2022-10-24T01:48:11.679Z,99.90
2022-10-24T01:50:41.766Z,99.90
2022-10-24T01:53:10.927Z,99.90
2022-10-24T01:55:39.989Z,99.90
2022-10-24T01:58:08.314Z,99.90
2022-10-24T02:00:37.789Z,99.90
2022-10-24T02:03:12.800Z,99.90
2022-10-24T02:05:46.318Z,99.90
2022-10-24T02:08:18.283Z,99.90
2022-10-24T02:10:52.065Z,99.90
2022-10-24T02:13:27.131Z,99.90
2022-10-24T02:15:59.943Z,99.90
2022-10-24T02:18:29.350Z,99.90
2022-10-24T02:21:06.790Z,99.90
2022-10-24T02:23:39.400Z,99.90
2022-10-24T02:26:11.941Z,99.90
2022-10-24T02:28:43.011Z,99.90
2022-10-24T02:31:17.359Z,99.90
2022-10-24T02:33:46.670Z,99.90
2022-10-24T02:36:17.862Z,99.90
2022-10-24T02:38:48.218Z,99.90
2022-10-24T02:41:21.611Z,99.90
2022-10-24T02:43:51.875Z,99.90
2022-10-24T02:46:22.777Z,99.90
2022-10-24T02:48:56.060Z,99.90
2022-10-24T02:51:28.407Z,99.90
2022-10-24T02:53:57.123Z,99.90
2022-10-24T02:56:25.194Z,99.90
2022-10-24T02:58:52.956Z,99.90
2022-10-24T03:01:22.494Z,99.90
2022-10-24T03:03:50.370Z,99.90
2022-10-24T03:06:18.263Z,99.90
2022-10-24T03:08:46.036Z,99.90
2022-10-24T03:11:14.402Z,99.90
2022-10-24T03:13:42.167Z,99.90
2022-10-24T03:16:11.795Z,99.90
2022-10-24T03:18:43.202Z,99.90
2022-10-24T03:21:11.129Z,99.90
2022-10-24T03:23:38.903Z,99.90
2022-10-24T03:26:07.162Z,99.90
2022-10-24T03:28:35.841Z,99.90
2022-10-24T03:31:03.646Z,99.90
2022-10-24T03:33:31.404Z,99.90
2022-10-24T03:36:00.787Z,99.90
2022-10-24T03:38:28.845Z,99.90
2022-10-24T03:40:56.631Z,99.90
2022-10-24T03:43:24.608Z,99.90
2022-10-24T03:45:52.370Z,99.90
2022-10-24T03:48:20.191Z,99.90
2022-10-24T03:50:47.994Z,99.90
2022-10-24T03:53:17.085Z,99.90
2022-10-24T03:55:44.848Z,99.90
2022-10-24T03:58:12.618Z,99.90
2022-10-24T04:00:41.609Z,99.90
2022-10-24T04:03:09.974Z,99.90
2022-10-24T04:08:07.417Z,99.90
2022-10-24T04:10:36.588Z,99.90
2022-10-24T04:13:04.918Z,99.90
2022-10-24T04:15:32.751Z,99.90
2022-10-24T04:18:00.561Z,99.90
2022-10-24T04:20:28.443Z,99.90
2022-10-24T04:22:56.341Z,99.90
2022-10-24T04:25:24.185Z,99.90
2022-10-24T04:27:53.304Z,99.90
2022-10-24T04:30:21.180Z,99.90
2022-10-24T04:32:49.046Z,99.90
2022-10-24T04:35:16.885Z,99.90
2022-10-24T04:37:44.649Z,99.90
2022-10-24T04:40:12.835Z,99.90
2022-10-24T04:42:40.914Z,99.90
2022-10-24T04:45:11.509Z,99.90
2022-10-24T04:47:39.310Z,99.40
2022-10-24T04:50:08.156Z,99.90
2022-10-24T04:52:35.975Z,99.60
2022-10-24T04:55:03.828Z,99.60
2022-10-24T04:57:31.587Z,99.90
2022-10-24T04:59:59.379Z,99.90
2022-10-24T05:02:28.857Z,99.40
2022-10-24T05:04:56.697Z,99.50
2022-10-24T05:07:24.577Z,99.60
2022-10-24T05:09:52.343Z,99.60
2022-10-24T05:14:52.791Z,98.50
2022-10-24T05:17:20.567Z,98.40
2022-10-24T05:19:51.334Z,99.00
2022-10-24T05:22:19.158Z,99.10
2022-10-24T05:24:46.968Z,98.80
2022-10-24T05:27:14.731Z,99.50
2022-10-24T05:29:42.505Z,98.60
2022-10-24T05:32:10.277Z,98.90
2022-10-24T05:34:38.070Z,98.50
2022-10-24T05:37:07.208Z,99.10
2022-10-24T05:39:36.037Z,99.00
2022-10-24T05:42:04.154Z,98.30
2022-10-24T05:44:32.112Z,98.50
2022-10-24T05:47:00.016Z,98.70
2022-10-24T05:49:27.778Z,98.50
2022-10-24T05:51:55.556Z,98.20
2022-10-24T05:54:30.069Z,99.00
2022-10-24T05:57:06.242Z,98.50
2022-10-24T05:59:34.050Z,98.50
2022-10-24T06:02:01.962Z,98.50
2022-10-24T06:04:29.816Z,97.90
2022-10-24T06:06:57.618Z,98.70
2022-10-24T06:09:26.758Z,98.90
2022-10-24T06:11:54.541Z,98.70
2022-10-24T06:14:22.297Z,99.90
2022-10-24T06:16:50.085Z,99.90
2022-10-24T06:19:18.967Z,99.10
2022-10-24T06:21:46.739Z,99.90
2022-10-24T06:24:14.494Z,99.90
2022-10-24T06:26:43.631Z,98.20
2022-10-24T06:29:11.722Z,98.80
2022-10-24T06:31:39.509Z,99.10
2022-10-24T06:34:07.272Z,98.80
2022-10-24T06:36:36.779Z,98.50
2022-10-24T06:39:04.887Z,99.00
2022-10-24T06:41:32.662Z,99.20
2022-10-24T06:44:04.319Z,99.90
2022-10-24T06:46:33.553Z,98.90
2022-10-24T06:49:01.376Z,99.90
2022-10-24T06:51:30.208Z,99.80
2022-10-24T06:53:59.174Z,99.70
2022-10-24T06:56:27.326Z,99.90
2022-10-24T06:58:55.096Z,99.90
2022-10-24T07:01:26.154Z,99.90
2022-10-24T07:03:54.186Z,99.90
2022-10-24T07:06:24.996Z,99.80
2022-10-24T07:08:54.097Z,99.20
2022-10-24T07:11:22.142Z,99.90
2022-10-24T07:13:50.429Z,99.10
2022-10-24T07:16:18.663Z,99.70
2022-10-24T07:18:48.445Z,99.20
2022-10-24T07:21:19.177Z,99.90
2022-10-24T07:23:47.131Z,98.90
2022-10-24T07:26:16.764Z,99.90
2022-10-24T07:28:46.653Z,98.70
2022-10-24T07:31:17.747Z,98.90
2022-10-24T07:33:46.894Z,97.90
2022-10-24T07:36:17.889Z,98.90
2022-10-24T07:38:45.816Z,98.80
2022-10-24T07:41:13.632Z,97.60
2022-10-24T07:43:41.609Z,97.80
2022-10-24T07:46:11.399Z,97.70
2022-10-24T07:48:39.842Z,97.20
2022-10-24T07:51:11.414Z,97.20
2022-10-24T07:53:39.289Z,96.40
2022-10-24T07:56:10.424Z,94.60
2022-10-24T07:58:38.806Z,94.40
2022-10-24T08:01:07.889Z,94.50
2022-10-24T08:03:35.969Z,94.90
2022-10-24T08:06:06.335Z,94.80
2022-10-24T08:08:37.487Z,94.40
2022-10-24T08:11:09.078Z,94.40
2022-10-24T08:13:36.940Z,94.40
2022-10-24T08:16:06.469Z,94.30
2022-10-24T08:18:38.821Z,93.50
2022-10-24T08:21:09.907Z,93.70
2022-10-24T08:23:40.399Z,93.40
2022-10-24T08:26:09.624Z,93.20
2022-10-24T08:28:37.788Z,93.20
2022-10-24T08:31:08.150Z,93.30
2022-10-24T08:33:36.185Z,93.30
2022-10-24T08:36:07.485Z,92.40
2022-10-24T08:38:35.253Z,93.10
2022-10-24T08:41:04.424Z,92.90
2022-10-24T08:43:32.285Z,93.20
2022-10-24T08:46:07.292Z,92.90
2022-10-24T08:48:44.762Z,92.40
2022-10-24T08:51:25.698Z,92.50
2022-10-24T08:53:56.047Z,92.60
2022-10-24T08:56:29.611Z,92.30
2022-10-24T08:58:58.623Z,92.70
2022-10-24T09:01:33.390Z,92.60
2022-10-24T09:04:05.700Z,92.80
2022-10-24T09:06:34.298Z,92.60
2022-10-24T09:09:04.324Z,92.50
2022-10-24T09:11:44.582Z,92.50
2022-10-24T09:14:15.307Z,92.80
2022-10-24T09:16:44.920Z,92.00
2022-10-24T09:19:16.024Z,92.00
2022-10-24T09:21:45.646Z,92.10
2022-10-24T09:24:25.176Z,91.80
2022-10-24T09:26:54.429Z,91.70
2022-10-24T09:29:22.903Z,91.80
2022-10-24T09:31:50.739Z,91.00
2022-10-24T09:34:18.773Z,91.20
2022-10-24T09:36:46.914Z,91.70
2022-10-24T09:39:28.142Z,91.40
2022-10-24T09:41:58.487Z,90.70
2022-10-24T09:44:35.278Z,90.70
2022-10-24T09:47:04.692Z,90.00
2022-10-24T09:49:36.418Z,90.10
2022-10-24T09:52:09.145Z,90.10
2022-10-24T09:54:37.632Z,87.70
2022-10-24T09:59:50.224Z,85.50
2022-10-24T10:02:26.377Z,85.90
2022-10-24T10:05:27.923Z,86.40
2022-10-24T10:07:55.789Z,87.80
2022-10-24T10:10:32.448Z,88.50
2022-10-24T10:13:06.383Z,89.70
2022-10-24T10:15:37.815Z,89.50
2022-10-24T10:18:21.370Z,90.40
2022-10-24T10:21:03.653Z,90.20
2022-10-24T10:23:33.388Z,89.90
2022-10-24T10:26:21.057Z,89.70
2022-10-24T10:28:58.176Z,88.10
2022-10-24T10:31:31.068Z,88.80
2022-10-24T10:34:15.007Z,87.10
2022-10-24T10:37:02.290Z,87.80
2022-10-24T10:39:54.193Z,88.70
2022-10-24T10:42:34.048Z,87.10
2022-10-24T10:45:19.184Z,85.90
2022-10-24T10:47:57.498Z,84.00
2022-10-24T10:50:34.088Z,83.70
2022-10-24T10:53:12.154Z,83.40
2022-10-24T10:55:48.848Z,82.80
2022-10-24T10:58:27.767Z,82.20
2022-10-24T11:01:06.797Z,82.50
2022-10-24T11:03:43.480Z,82.50
2022-10-24T11:06:29.535Z,83.10
2022-10-24T11:09:25.375Z,83.70
2022-10-24T11:12:00.081Z,84.30
2022-10-24T11:14:32.582Z,84.40
2022-10-24T11:17:10.966Z,84.80
2022-10-24T11:19:46.389Z,84.80
2022-10-24T11:22:21.167Z,84.40
2022-10-24T11:24:56.460Z,84.10
2022-10-24T11:27:29.409Z,84.20
2022-10-24T11:30:05.019Z,84.80
2022-10-24T11:32:38.166Z,83.90
2022-10-24T11:35:15.728Z,83.50
2022-10-24T11:37:46.246Z,83.10
2022-10-24T11:40:17.744Z,83.50
2022-10-24T11:42:51.580Z,84.00
2022-10-24T11:45:21.114Z,83.60
2022-10-24T11:48:02.675Z,83.50
2022-10-24T11:50:37.022Z,83.70
2022-10-24T11:53:18.140Z,83.20
2022-10-24T11:55:51.184Z,84.00
2022-10-24T11:58:22.508Z,84.00
2022-10-24T12:01:07.458Z,84.20
2022-10-24T12:04:02.828Z,84.70
2022-10-24T12:07:02.092Z,83.80
2022-10-24T12:09:42.266Z,83.20
2022-10-24T12:12:22.287Z,83.00
2022-10-24T12:15:10.958Z,82.50
2022-10-24T12:17:53.387Z,83.10
2022-10-24T12:20:24.826Z,82.80
2022-10-24T12:22:53.507Z,81.40
2022-10-24T12:25:30.856Z,81.20
2022-10-24T12:28:02.204Z,81.80
2022-10-24T12:30:32.848Z,82.20
2022-10-24T12:33:12.148Z,81.20
2022-10-24T12:35:51.823Z,81.80
2022-10-24T12:39:07.755Z,81.60
2022-10-24T12:41:44.023Z,81.00
2022-10-24T12:44:36.775Z,81.60
2022-10-24T12:47:31.038Z,82.00
2022-10-24T12:50:00.471Z,81.40
2022-10-24T12:52:52.263Z,81.60
2022-10-24T12:55:33.485Z,81.30
2022-10-24T12:58:04.979Z,82.80
2022-10-24T13:00:33.624Z,82.20
2022-10-24T13:03:07.726Z,82.40
2022-10-24T13:05:56.937Z,82.40
2022-10-24T13:08:44.767Z,82.80
2022-10-24T13:11:28.826Z,83.00
2022-10-24T13:14:21.125Z,82.40
2022-10-24T13:16:59.754Z,82.30
2022-10-24T13:19:29.030Z,82.30
2022-10-24T13:21:58.619Z,82.60
2022-10-24T13:24:36.639Z,82.40
2022-10-24T13:27:30.225Z,82.60
2022-10-24T13:30:27.800Z,82.30
2022-10-24T13:33:33.078Z,82.40
2022-10-24T13:36:14.852Z,82.60
2022-10-24T13:38:46.944Z,83.00
2022-10-24T13:41:30.180Z,83.30
2022-10-24T13:44:03.200Z,82.80
2022-10-24T13:49:08.546Z,83.10
2022-10-24T13:51:43.388Z,83.80
2022-10-24T13:54:19.783Z,83.80
2022-10-24T13:56:49.951Z,83.60
2022-10-24T13:59:31.424Z,83.80
2022-10-24T14:02:01.772Z,83.90
2022-10-24T14:04:31.341Z,84.20
2022-10-24T14:07:04.303Z,85.20
2022-10-24T14:09:39.378Z,84.60
2022-10-24T14:12:08.988Z,84.60
2022-10-24T14:14:40.929Z,84.60
2022-10-24T14:17:23.063Z,85.00
2022-10-24T14:19:55.527Z,85.00
2022-10-24T14:22:26.054Z,85.10
2022-10-24T14:24:53.833Z,85.10
2022-10-24T14:27:23.504Z,85.80
2022-10-24T14:29:53.740Z,86.40
2022-10-24T14:32:21.711Z,86.40
2022-10-24T14:34:50.626Z,87.00
2022-10-24T14:37:24.239Z,87.20
2022-10-24T14:39:52.250Z,88.30
2022-10-24T14:42:20.170Z,87.80
2022-10-24T14:44:54.833Z,87.40
2022-10-24T14:47:28.100Z,87.40
2022-10-24T14:50:00.572Z,88.80
2022-10-24T14:52:36.292Z,90.50
2022-10-24T14:55:06.680Z,91.00
2022-10-24T14:57:35.904Z,91.80
2022-10-24T15:00:08.269Z,92.50
2022-10-24T15:02:42.187Z,92.20
2022-10-24T15:05:17.378Z,92.20
2022-10-24T15:08:02.979Z,92.40
2022-10-24T15:10:37.672Z,92.40
2022-10-24T15:13:12.844Z,92.50
2022-10-24T15:15:51.912Z,92.70
2022-10-24T15:18:22.531Z,93.20
2022-10-24T15:20:53.240Z,94.00
2022-10-24T15:23:26.094Z,94.90
2022-10-24T15:26:11.611Z,95.10
2022-10-24T15:28:45.997Z,95.20
2022-10-24T15:31:17.805Z,95.80
2022-10-24T15:33:45.978Z,96.50
2022-10-24T15:36:21.050Z,96.20
2022-10-24T15:38:49.425Z,96.70
2022-10-24T15:41:17.332Z,96.60
2022-10-24T15:43:45.106Z,96.80
2022-10-24T15:46:12.863Z,96.60
2022-10-24T15:48:41.977Z,96.80
2022-10-24T15:51:14.313Z,96.70
2022-10-24T15:53:42.569Z,96.60
2022-10-24T15:56:11.620Z,96.00
2022-10-24T15:58:39.940Z,95.70
2022-10-24T16:01:09.143Z,95.90
2022-10-24T16:03:37.232Z,96.40
2022-10-24T16:06:06.575Z,96.40
2022-10-24T16:08:34.349Z,96.80
2022-10-24T16:11:05.002Z,96.80
2022-10-24T16:13:35.536Z,96.60
2022-10-24T16:16:03.307Z,96.90
2022-10-24T16:18:31.102Z,97.00
2022-10-24T16:20:58.974Z,97.10
2022-10-24T16:23:28.535Z,97.50
2022-10-24T16:25:56.313Z,97.60
2022-10-24T16:28:25.862Z,97.60
2022-10-24T16:30:53.918Z,97.90
2022-10-24T16:33:22.303Z,99.20
2022-10-24T16:35:50.900Z,98.20
2022-10-24T16:38:19.126Z,97.50
2022-10-24T16:40:49.103Z,97.20
2022-10-24T16:43:18.928Z,97.00
2022-10-24T16:45:56.507Z,96.70
2022-10-24T16:48:24.395Z,96.10
2022-10-24T16:50:52.292Z,96.40
2022-10-24T16:53:20.076Z,96.60
2022-10-24T16:55:51.012Z,96.60
2022-10-24T16:58:19.844Z,96.60
2022-10-24T17:00:48.550Z,96.50
2022-10-24T17:03:16.419Z,96.70
2022-10-24T17:08:14.405Z,96.80
2022-10-24T17:10:42.201Z,96.80
2022-10-24T17:13:11.368Z,97.00
2022-10-24T17:15:40.088Z,96.80
2022-10-24T17:18:09.694Z,96.30
2022-10-24T17:20:37.559Z,96.50
2022-10-24T17:23:06.590Z,96.70
2022-10-24T17:25:34.874Z,96.20
2022-10-24T17:28:02.829Z,96.40
2022-10-24T17:30:32.527Z,96.50
2022-10-24T17:33:01.588Z,96.40
2022-10-24T17:35:30.363Z,96.20
2022-10-24T17:38:07.427Z,96.00
2022-10-24T17:40:42.532Z,95.60
2022-10-24T17:43:19.320Z,95.50
2022-10-24T17:45:49.519Z,95.50
2022-10-24T17:48:17.714Z,95.40
2022-10-24T17:50:46.476Z,95.20
2022-10-24T17:53:14.514Z,94.70
2022-10-24T17:55:47.102Z,95.00
2022-10-24T17:58:16.631Z,94.90
2022-10-24T18:00:44.959Z,95.00
2022-10-24T18:03:14.281Z,94.70
2022-10-24T18:05:42.597Z,94.70
2022-10-24T18:08:11.818Z,94.70
2022-10-24T18:10:40.589Z,94.80
2022-10-24T18:13:09.084Z,94.80
2022-10-24T18:15:37.718Z,94.70
2022-10-24T18:18:06.738Z,94.60
2022-10-24T18:20:36.135Z,94.50
2022-10-24T18:23:04.372Z,94.40
2022-10-24T18:25:32.198Z,94.60
2022-10-24T18:28:00.014Z,94.50
2022-10-24T18:30:28.139Z,94.50
2022-10-24T18:32:55.933Z,94.60
2022-10-24T18:35:23.722Z,94.50
2022-10-24T18:40:26.055Z,94.50
2022-10-24T18:42:58.462Z,94.40
2022-10-24T18:45:28.143Z,94.20
2022-10-24T18:47:56.299Z,94.40
2022-10-24T18:50:26.013Z,94.50
2022-10-24T18:53:00.150Z,94.30
2022-10-24T18:55:29.940Z,94.60
2022-10-24T18:57:58.179Z,95.50
2022-10-24T19:00:27.636Z,95.00
2022-10-24T19:03:07.235Z,95.40
2022-10-24T19:05:42.895Z,95.40
2022-10-24T19:08:16.245Z,95.20
2022-10-24T19:10:45.609Z,94.90
2022-10-24T19:13:13.940Z,95.80
2022-10-24T19:15:45.247Z,95.90
2022-10-24T19:18:16.771Z,95.40
2022-10-24T19:20:44.878Z,95.70
2022-10-24T19:23:15.274Z,95.90
2022-10-24T19:25:43.147Z,95.60
2022-10-24T19:28:12.556Z,95.40
2022-10-24T19:30:44.583Z,95.40
2022-10-24T19:33:13.209Z,95.60
2022-10-24T19:35:46.734Z,95.60
2022-10-24T19:38:16.051Z,95.80
2022-10-24T19:40:47.987Z,95.50
2022-10-24T19:43:15.843Z,95.30
2022-10-24T19:45:50.218Z,95.60
2022-10-24T19:48:23.340Z,95.30
2022-10-24T19:50:51.372Z,95.10
2022-10-24T19:53:20.470Z,95.60
2022-10-24T19:55:48.256Z,95.60
2022-10-24T19:58:19.882Z,95.70
2022-10-24T20:00:47.977Z,95.60
2022-10-24T20:03:16.034Z,95.50
2022-10-24T20:05:43.953Z,95.80
2022-10-24T20:08:11.745Z,95.90
2022-10-24T20:10:40.835Z,95.70
2022-10-24T20:13:08.593Z,95.90
2022-10-24T20:15:36.379Z,96.30
2022-10-24T20:18:04.175Z,96.40
2022-10-24T20:20:31.965Z,96.40
2022-10-24T20:22:59.750Z,97.00
2022-10-24T20:25:27.578Z,97.10
2022-10-24T20:27:56.672Z,97.20
2022-10-24T20:30:24.892Z,97.70
2022-10-24T20:32:52.647Z,97.10
2022-10-24T20:35:22.047Z,97.90
2022-10-24T20:37:50.025Z,97.70
2022-10-24T20:40:18.052Z,97.00
2022-10-24T20:42:46.892Z,97.30
2022-10-24T20:45:20.383Z,97.50
2022-10-24T20:47:50.823Z,97.00
2022-10-24T20:50:18.771Z,97.80
2022-10-24T20:52:46.666Z,97.50
2022-10-24T20:55:25.202Z,97.40
2022-10-24T20:58:02.433Z,97.90
2022-10-24T21:00:31.639Z,97.90
2022-10-24T21:02:59.543Z,97.80
2022-10-24T21:05:28.964Z,97.80
2022-10-24T21:07:56.901Z,97.90
2022-10-24T21:10:24.703Z,97.10
2022-10-24T21:12:52.763Z,97.30
2022-10-24T21:15:20.724Z,97.50
2022-10-24T21:17:49.866Z,97.10
2022-10-24T21:20:17.704Z,97.40
2022-10-24T21:22:45.515Z,97.10
2022-10-24T21:25:13.323Z,96.70
2022-10-24T21:27:41.083Z,97.20
2022-10-24T21:30:14.291Z,97.20
2022-10-24T21:32:42.607Z,97.10
2022-10-24T21:35:11.788Z,97.00
2022-10-24T21:37:39.563Z,97.30
2022-10-24T21:40:08.373Z,97.20
2022-10-24T21:42:36.153Z,97.10
2022-10-24T21:45:04.242Z,96.80
2022-10-24T21:47:32.037Z,97.00
2022-10-24T21:49:59.804Z,96.80
2022-10-24T21:52:29.145Z,97.30
2022-10-24T21:54:56.969Z,97.50
2022-10-24T21:57:24.815Z,97.60
2022-10-24T21:59:52.567Z,97.40
2022-10-24T22:02:20.386Z,97.30
2022-10-24T22:04:48.230Z,98.00
2022-10-24T22:07:16.028Z,97.60
2022-10-24T22:09:45.165Z,98.20
2022-10-24T22:12:12.922Z,98.10
2022-10-24T22:14:40.690Z,98.20
2022-10-24T22:17:08.478Z,98.40
2022-10-24T22:19:36.245Z,98.30
2022-10-24T22:22:04.014Z,97.60
2022-10-24T22:24:31.754Z,97.90
2022-10-24T22:27:00.936Z,97.60
2022-10-24T22:29:28.843Z,97.80
2022-10-24T22:31:57.140Z,97.60
2022-10-24T22:34:26.316Z,97.90
2022-10-24T22:37:03.501Z,97.80
2022-10-24T22:39:32.012Z,98.00
2022-10-24T22:42:01.711Z,98.00
2022-10-24T22:44:30.698Z,98.10
2022-10-24T22:47:11.356Z,98.20
2022-10-24T22:49:52.617Z,98.20
2022-10-24T22:52:20.858Z,97.90
2022-10-24T22:54:49.416Z,97.80
2022-10-24T22:57:19.189Z,97.90
2022-10-24T22:59:47.451Z,98.20
2022-10-24T23:02:25.743Z,98.00
2022-10-24T23:05:01.173Z,98.30
2022-10-24T23:07:37.381Z,97.80
2022-10-24T23:10:06.955Z,97.80
2022-10-24T23:12:36.887Z,97.70
2022-10-24T23:15:05.512Z,97.50
2022-10-24T23:17:34.236Z,97.10
2022-10-24T23:20:02.662Z,97.40
2022-10-24T23:22:31.808Z,97.60
2022-10-24T23:25:01.787Z,97.90
2022-10-24T23:27:39.228Z,97.50
2022-10-24T23:30:15.601Z,97.60
2022-10-24T23:32:44.111Z,97.50
2022-10-24T23:35:15.349Z,97.30
2022-10-24T23:37:45.000Z,97.20
2022-10-24T23:40:27.773Z,97.50
2022-10-24T23:42:57.754Z,97.70
2022-10-24T23:45:28.731Z,97.60
2022-10-24T23:48:09.303Z,97.70
2022-10-24T23:50:45.064Z,98.40
2022-10-24T23:53:24.192Z,98.10
2022-10-24T23:55:52.602Z,98.10
2022-10-24T23:58:21.873Z,98.70
